createdAt,value
2022-07-25T00:01:57.036Z,13.55
2022-07-25T00:04:24.860Z,13.77
2022-07-25T00:06:52.074Z,13.98
2022-07-25T00:09:19.425Z,14.63
2022-07-25T00:11:46.606Z,14.38
2022-07-25T00:14:13.755Z,12.82
2022-07-25T00:16:40.991Z,12.82
2022-07-25T00:19:08.148Z,13.20
2022-07-25T00:21:35.329Z,12.43
2022-07-25T00:24:02.721Z,15.20
2022-07-25T00:26:30.141Z,13.70
2022-07-25T00:28:57.351Z,14.73
2022-07-25T00:31:24.715Z,12.90
2022-07-25T00:33:51.900Z,13.25
2022-07-25T00:36:19.068Z,11.10
2022-07-25T00:38:46.401Z,15.38
2022-07-25T00:41:13.615Z,13.57
2022-07-25T00:43:47.088Z,12.00
2022-07-25T00:46:14.753Z,10.57
2022-07-25T00:48:46.481Z,13.32
2022-07-25T00:51:14.020Z,13.30
2022-07-25T00:53:41.276Z,14.75
2022-07-25T00:56:08.767Z,15.80
2022-07-25T00:58:36.306Z,13.07
2022-07-25T01:01:03.959Z,13.13
2022-07-25T01:03:31.205Z,11.93
2022-07-25T01:05:58.448Z,12.05
2022-07-25T01:08:26.084Z,15.13
2022-07-25T01:10:53.337Z,11.73
2022-07-25T01:13:20.977Z,14.40
2022-07-25T01:15:48.305Z,14.57
2022-07-25T01:18:15.530Z,16.88
2022-07-25T01:20:42.814Z,12.02
2022-07-25T01:23:10.043Z,17.05
2022-07-25T01:25:37.248Z,14.68
2022-07-25T01:28:04.489Z,13.25
2022-07-25T01:30:31.665Z,13.85
2022-07-25T01:32:58.815Z,13.80
2022-07-25T01:35:26.174Z,13.45
2022-07-25T01:37:53.319Z,15.38
2022-07-25T01:40:20.471Z,13.73
2022-07-25T01:42:47.827Z,12.60
2022-07-25T01:45:15.390Z,14.30
2022-07-25T01:47:42.581Z,13.40
2022-07-25T01:50:10.187Z,13.88
2022-07-25T01:52:39.548Z,11.07
2022-07-25T01:55:06.962Z,14.52
2022-07-25T01:57:34.298Z,13.02
2022-07-25T02:00:04.626Z,13.82
2022-07-25T02:02:31.781Z,12.57
2022-07-25T02:04:59.345Z,14.88
2022-07-25T02:07:26.570Z,13.38
2022-07-25T02:09:56.913Z,17.02
2022-07-25T02:12:24.313Z,15.48
2022-07-25T02:14:51.520Z,15.02
2022-07-25T02:17:18.796Z,14.13
2022-07-25T02:19:46.141Z,14.77
2022-07-25T02:22:13.382Z,12.02
2022-07-25T02:24:40.703Z,15.43
2022-07-25T02:27:08.709Z,13.50
2022-07-25T02:29:35.933Z,13.27
2022-07-25T02:32:03.349Z,12.93
2022-07-25T02:34:30.658Z,14.65
2022-07-25T02:36:57.804Z,14.82
2022-07-25T02:39:25.401Z,12.10
2022-07-25T02:41:52.663Z,12.77
2022-07-25T02:44:19.833Z,12.98
2022-07-25T02:46:47.025Z,13.65
2022-07-25T02:49:14.449Z,13.05
2022-07-25T02:51:41.645Z,13.18
2022-07-25T02:54:08.808Z,13.82
2022-07-25T02:56:36.128Z,12.10
2022-07-25T02:59:03.309Z,12.50
2022-07-25T03:01:30.757Z,11.52
2022-07-25T03:03:58.236Z,13.70
2022-07-25T03:06:25.456Z,12.15
2022-07-25T03:08:52.613Z,14.00
2022-07-25T03:11:21.537Z,12.27
2022-07-25T03:13:48.684Z,13.38
2022-07-25T03:16:16.452Z,12.77
2022-07-25T03:18:43.801Z,14.57
2022-07-25T03:21:10.944Z,12.75
2022-07-25T03:23:38.636Z,12.73
2022-07-25T03:26:06.057Z,15.27
2022-07-25T03:28:33.209Z,13.38
2022-07-25T03:31:00.410Z,13.52
2022-07-25T03:33:27.812Z,12.70
2022-07-25T03:35:56.457Z,12.23
2022-07-25T03:38:24.689Z,13.68
2022-07-25T03:40:51.993Z,16.23
2022-07-25T03:43:19.143Z,12.20
2022-07-25T03:45:46.361Z,11.57
2022-07-25T03:48:13.586Z,14.23
2022-07-25T03:50:40.739Z,14.57
2022-07-25T03:53:07.970Z,12.25
2022-07-25T03:55:37.815Z,13.35
2022-07-25T03:58:04.979Z,13.95
2022-07-25T04:00:32.179Z,12.13
2022-07-25T04:02:59.676Z,12.95
2022-07-25T04:05:26.917Z,12.52
2022-07-25T04:07:54.106Z,14.13
2022-07-25T04:10:21.297Z,11.38
2022-07-25T04:12:48.525Z,11.80
2022-07-25T04:15:16.440Z,13.43
2022-07-25T04:17:43.738Z,12.73
2022-07-25T04:20:11.209Z,10.43
2022-07-25T04:22:42.078Z,11.50
2022-07-25T04:25:10.849Z,13.88
2022-07-25T04:27:38.421Z,13.38
2022-07-25T04:30:05.793Z,13.60
2022-07-25T04:32:33.079Z,13.93
2022-07-25T04:35:00.274Z,13.43
2022-07-25T04:37:27.495Z,12.50
2022-07-25T04:39:54.795Z,13.90
2022-07-25T04:42:21.991Z,12.68
2022-07-25T04:44:49.147Z,15.10
2022-07-25T04:47:16.466Z,12.45
2022-07-25T04:49:43.610Z,12.25
2022-07-25T04:52:10.772Z,13.57
2022-07-25T04:54:38.106Z,13.40
2022-07-25T04:57:05.299Z,14.88
2022-07-25T04:59:32.449Z,13.98
2022-07-25T05:01:59.730Z,12.25
2022-07-25T05:04:26.932Z,15.05
2022-07-25T05:06:54.188Z,13.88
2022-07-25T05:09:21.508Z,11.48
2022-07-25T05:11:52.839Z,13.27
2022-07-25T05:14:23.369Z,14.25
2022-07-25T05:16:50.605Z,14.18
2022-07-25T05:19:17.788Z,14.18
2022-07-25T05:21:45.012Z,13.38
2022-07-25T05:24:12.484Z,12.00
2022-07-25T05:26:39.649Z,14.32
2022-07-25T05:29:06.922Z,14.50
2022-07-25T05:31:34.122Z,16.63
2022-07-25T05:34:01.332Z,18.40
2022-07-25T05:36:28.633Z,20.38
2022-07-25T05:38:55.836Z,15.23
2022-07-25T05:41:23.323Z,13.60
2022-07-25T05:43:50.692Z,13.60
2022-07-25T05:46:18.000Z,17.15
2022-07-25T05:48:45.283Z,14.55
2022-07-25T05:51:13.708Z,13.48
2022-07-25T05:53:41.027Z,12.57
2022-07-25T05:56:08.286Z,13.30
2022-07-25T05:58:37.339Z,13.82
2022-07-25T06:01:04.500Z,13.40
2022-07-25T06:03:34.087Z,13.10
2022-07-25T06:06:01.474Z,13.07
2022-07-25T06:08:30.816Z,14.02
2022-07-25T06:10:59.166Z,13.10
2022-07-25T06:13:28.115Z,12.55
2022-07-25T06:15:55.503Z,13.90
2022-07-25T06:18:22.691Z,15.32
2022-07-25T06:20:49.912Z,14.88
2022-07-25T06:23:17.659Z,14.10
2022-07-25T06:25:49.994Z,12.27
2022-07-25T06:28:17.987Z,11.73
2022-07-25T06:30:46.271Z,14.10
2022-07-25T06:33:13.910Z,11.52
2022-07-25T06:35:41.290Z,15.43
2022-07-25T06:38:08.465Z,14.35
2022-07-25T06:40:35.599Z,11.90
2022-07-25T06:43:03.058Z,11.68
2022-07-25T06:45:30.283Z,10.30
2022-07-25T06:47:57.422Z,11.65
2022-07-25T06:50:24.825Z,10.43
2022-07-25T06:52:52.077Z,11.68
2022-07-25T06:55:19.240Z,14.32
2022-07-25T06:57:46.539Z,13.27
2022-07-25T07:00:14.404Z,13.35
2022-07-25T07:02:58.784Z,10.70
2022-07-25T07:05:27.321Z,8.65
2022-07-25T07:07:54.839Z,10.45
2022-07-25T07:10:22.762Z,12.43
2022-07-25T07:12:50.240Z,8.90
2022-07-25T07:15:17.833Z,11.35
2022-07-25T07:17:45.048Z,9.50
2022-07-25T07:20:12.395Z,11.80
2022-07-25T07:22:45.177Z,10.73
2022-07-25T07:25:13.681Z,10.60
2022-07-25T07:27:41.467Z,8.73
2022-07-25T07:30:09.497Z,8.68
2022-07-25T07:32:36.710Z,9.10
2022-07-25T07:35:04.464Z,12.18
2022-07-25T07:37:36.577Z,9.43
2022-07-25T07:40:06.252Z,8.80
2022-07-25T07:42:40.243Z,9.63
2022-07-25T07:45:17.686Z,11.02
2022-07-25T07:47:48.024Z,10.88
2022-07-25T07:52:42.355Z,9.00
2022-07-25T07:55:29.111Z,11.70
2022-07-25T07:57:56.508Z,8.88
2022-07-25T08:00:24.139Z,6.00
2022-07-25T08:02:52.261Z,9.30
2022-07-25T08:05:23.587Z,8.05
2022-07-25T08:07:51.772Z,12.02
2022-07-25T08:10:20.306Z,11.18
2022-07-25T08:12:47.542Z,8.45
2022-07-25T08:15:15.271Z,7.75
2022-07-25T08:17:43.676Z,8.48
2022-07-25T08:20:36.371Z,8.88
2022-07-25T08:22:58.523Z,7.70
2022-07-25T08:25:25.655Z,9.05
2022-07-25T08:27:53.366Z,9.48
2022-07-25T08:30:20.882Z,8.10
2022-07-25T08:32:59.887Z,7.82
2022-07-25T08:35:27.611Z,7.32
2022-07-25T08:37:55.321Z,10.60
2022-07-25T08:40:23.267Z,7.28
2022-07-25T08:42:51.212Z,8.57
2022-07-25T08:45:21.977Z,5.97
2022-07-25T08:47:50.500Z,8.18
2022-07-25T08:50:19.938Z,8.88
2022-07-25T08:52:47.935Z,8.35
2022-07-25T08:55:17.034Z,6.75
2022-07-25T08:57:44.664Z,7.55
2022-07-25T09:00:12.658Z,7.55
2022-07-25T09:02:41.019Z,7.85
2022-07-25T09:05:08.936Z,7.30
2022-07-25T09:07:37.408Z,6.43
2022-07-25T09:10:23.810Z,6.05
2022-07-25T09:12:57.175Z,8.52
2022-07-25T09:15:29.647Z,6.75
2022-07-25T09:17:58.624Z,5.95
2022-07-25T09:22:54.489Z,8.13
2022-07-25T09:25:25.642Z,6.32
2022-07-25T09:27:52.831Z,8.18
2022-07-25T09:30:20.337Z,6.90
2022-07-25T09:32:47.667Z,8.57
2022-07-25T09:35:14.962Z,7.57
2022-07-25T09:37:42.356Z,7.78
2022-07-25T09:40:14.090Z,5.65
2022-07-25T09:42:42.906Z,7.20
2022-07-25T09:45:12.387Z,7.13
2022-07-25T09:47:51.171Z,5.90
2022-07-25T09:50:18.614Z,8.50
2022-07-25T09:52:46.257Z,6.70
2022-07-25T09:55:17.050Z,8.77
2022-07-25T09:57:48.910Z,7.85
2022-07-25T10:00:20.257Z,7.43
2022-07-25T10:02:49.457Z,9.93
2022-07-25T10:05:19.943Z,9.57
2022-07-25T10:07:49.149Z,7.85
2022-07-25T10:10:25.809Z,7.25
2022-07-25T10:13:01.900Z,8.13
2022-07-25T10:15:54.642Z,9.18
2022-07-25T10:18:23.320Z,6.97
2022-07-25T10:20:51.616Z,7.20
2022-07-25T10:23:27.110Z,5.43
2022-07-25T10:26:05.090Z,7.65
2022-07-25T10:28:37.202Z,5.75
2022-07-25T10:31:14.998Z,5.63
2022-07-25T10:33:42.880Z,8.73
2022-07-25T10:36:11.473Z,5.32
2022-07-25T10:38:42.650Z,7.30
2022-07-25T10:41:12.294Z,5.40
2022-07-25T10:43:40.301Z,5.55
2022-07-25T10:46:14.552Z,6.75
2022-07-25T10:48:42.243Z,5.90
2022-07-25T10:51:13.587Z,6.15
2022-07-25T10:53:47.080Z,6.75
2022-07-25T10:56:15.564Z,6.50
2022-07-25T10:58:48.827Z,6.90
2022-07-25T11:01:20.064Z,8.15
2022-07-25T11:03:47.525Z,8.80
2022-07-25T11:06:15.892Z,8.88
2022-07-25T11:08:43.987Z,8.45
2022-07-25T11:11:12.256Z,6.88
2022-07-25T11:13:40.643Z,7.05
2022-07-25T11:16:07.974Z,8.88
2022-07-25T11:18:39.962Z,7.97
2022-07-25T11:21:08.404Z,7.00
2022-07-25T11:23:36.825Z,5.57
2022-07-25T11:26:13.661Z,7.90
2022-07-25T11:28:40.809Z,8.32
2022-07-25T11:31:08.300Z,8.52
2022-07-25T11:33:38.598Z,6.15
2022-07-25T11:36:06.453Z,9.25
2022-07-25T11:38:34.448Z,6.03
2022-07-25T11:41:02.079Z,10.40
2022-07-25T11:43:29.545Z,6.35
2022-07-25T11:45:57.642Z,6.93
2022-07-25T11:48:31.509Z,7.60
2022-07-25T11:50:58.937Z,7.78
2022-07-25T11:53:26.939Z,6.63
2022-07-25T11:55:54.314Z,8.05
2022-07-25T11:58:24.151Z,7.85
2022-07-25T12:00:51.517Z,7.38
2022-07-25T12:03:23.232Z,7.05
2022-07-25T12:05:50.861Z,7.40
2022-07-25T12:08:19.986Z,6.35
2022-07-25T12:10:48.032Z,5.38
2022-07-25T12:13:24.456Z,6.45
2022-07-25T12:15:51.773Z,5.60
2022-07-25T12:18:19.337Z,5.57
2022-07-25T12:20:46.498Z,5.82
2022-07-25T12:23:14.337Z,5.43
2022-07-25T12:25:42.915Z,5.13
2022-07-25T12:28:11.042Z,5.72
2022-07-25T12:30:39.217Z,7.32
2022-07-25T12:33:06.431Z,5.75
2022-07-25T12:35:33.677Z,5.57
2022-07-25T12:38:01.239Z,6.32
2022-07-25T12:40:28.481Z,6.25
2022-07-25T12:42:56.366Z,5.80
2022-07-25T12:45:23.656Z,4.47
2022-07-25T12:47:50.873Z,5.22
2022-07-25T12:50:18.599Z,4.75
2022-07-25T12:52:46.289Z,6.10
2022-07-25T12:55:14.897Z,4.22
2022-07-25T12:57:42.494Z,6.15
2022-07-25T13:00:11.231Z,4.90
2022-07-25T13:02:38.546Z,5.88
2022-07-25T13:05:06.574Z,4.68
2022-07-25T13:07:34.522Z,7.28
2022-07-25T13:10:02.128Z,5.13
2022-07-25T13:12:29.635Z,3.47
2022-07-25T13:14:57.001Z,4.18
2022-07-25T13:17:27.481Z,5.93
2022-07-25T13:19:55.118Z,4.40
2022-07-25T13:22:22.495Z,4.93
2022-07-25T13:24:49.682Z,3.78
2022-07-25T13:27:18.719Z,4.32
2022-07-25T13:29:45.956Z,3.72
2022-07-25T13:32:13.593Z,4.15
2022-07-25T13:34:40.797Z,4.20
2022-07-25T13:37:08.249Z,4.40
2022-07-25T13:39:35.819Z,5.60
2022-07-25T13:42:03.633Z,5.15
2022-07-25T13:44:30.970Z,4.43
2022-07-25T13:46:58.716Z,4.20
2022-07-25T13:49:26.158Z,6.25
2022-07-25T13:51:53.774Z,5.03
2022-07-25T13:54:21.187Z,3.88
2022-07-25T13:56:48.483Z,4.82
2022-07-25T13:59:20.913Z,4.57
2022-07-25T14:01:48.676Z,5.45
2022-07-25T14:04:15.961Z,6.30
2022-07-25T14:06:43.480Z,3.85
2022-07-25T14:09:10.934Z,3.85
2022-07-25T14:11:38.562Z,4.97
2022-07-25T14:14:05.739Z,3.85
2022-07-25T14:16:34.431Z,4.75
2022-07-25T14:19:02.330Z,3.85
2022-07-25T14:21:29.711Z,4.95
2022-07-25T14:23:56.884Z,4.82
2022-07-25T14:26:24.178Z,3.42
2022-07-25T14:28:51.369Z,4.82
2022-07-25T14:31:18.738Z,3.85
2022-07-25T14:33:46.027Z,5.70
2022-07-25T14:36:13.265Z,4.30
2022-07-25T14:38:40.549Z,3.65
2022-07-25T14:41:12.838Z,5.45
2022-07-25T14:43:41.077Z,3.67
2022-07-25T14:46:09.106Z,3.10
2022-07-25T14:48:37.372Z,4.05
2022-07-25T14:51:04.724Z,3.72
2022-07-25T14:53:32.510Z,5.13
2022-07-25T14:56:00.886Z,4.32
2022-07-25T14:58:28.142Z,4.38
2022-07-25T15:00:55.603Z,3.85
2022-07-25T15:03:22.871Z,3.88
2022-07-25T15:05:50.011Z,4.20
2022-07-25T15:08:17.398Z,4.10
2022-07-25T15:10:44.607Z,3.95
2022-07-25T15:13:30.512Z,3.53
2022-07-25T15:15:59.111Z,5.88
2022-07-25T15:18:26.345Z,3.90
2022-07-25T15:20:53.549Z,3.50
2022-07-25T15:23:21.328Z,4.90
2022-07-25T15:26:04.647Z,3.53
2022-07-25T15:28:37.658Z,3.88
2022-07-25T15:31:05.709Z,3.25
2022-07-25T15:33:33.481Z,4.10
2022-07-25T15:36:00.840Z,3.00
2022-07-25T15:38:29.061Z,3.60
2022-07-25T15:40:56.353Z,3.47
2022-07-25T15:43:23.827Z,3.05
2022-07-25T15:45:50.974Z,3.38
2022-07-25T15:48:18.365Z,6.20
2022-07-25T15:50:47.910Z,3.70
2022-07-25T15:53:15.109Z,2.80
2022-07-25T15:55:42.471Z,3.47
2022-07-25T15:58:10.297Z,3.72
2022-07-25T16:00:38.501Z,3.00
2022-07-25T16:03:05.872Z,4.50
2022-07-25T16:05:33.262Z,3.60
2022-07-25T16:08:01.012Z,3.30
2022-07-25T16:10:28.880Z,3.28
2022-07-25T16:12:56.225Z,4.00
2022-07-25T16:15:23.423Z,4.03
2022-07-25T16:17:53.001Z,3.70
2022-07-25T16:20:20.773Z,4.03
2022-07-25T16:22:49.021Z,3.22
2022-07-25T16:25:16.674Z,3.83
2022-07-25T16:27:44.007Z,2.60
2022-07-25T16:30:12.796Z,2.72
2022-07-25T16:32:40.281Z,3.78
2022-07-25T16:35:07.731Z,4.00
2022-07-25T16:37:35.138Z,3.50
2022-07-25T16:40:03.766Z,2.92
2022-07-25T16:42:31.003Z,3.97
2022-07-25T16:44:58.158Z,4.07
2022-07-25T16:47:25.397Z,3.38
2022-07-25T16:49:52.590Z,5.43
2022-07-25T16:52:19.848Z,4.30
2022-07-25T16:54:47.373Z,2.67
2022-07-25T16:57:14.589Z,3.33
2022-07-25T16:59:41.758Z,3.05
2022-07-25T17:02:09.462Z,3.72
2022-07-25T17:04:37.772Z,2.80
2022-07-25T17:07:05.078Z,4.28
2022-07-25T17:09:32.305Z,3.17
2022-07-25T17:11:59.602Z,3.38
2022-07-25T17:14:30.153Z,3.75
2022-07-25T17:19:24.702Z,3.92
2022-07-25T17:21:51.856Z,2.75
2022-07-25T17:24:19.027Z,3.33
2022-07-25T17:26:46.438Z,3.45
2022-07-25T17:29:14.282Z,6.68
2022-07-25T17:31:41.454Z,3.33
2022-07-25T17:34:08.756Z,3.17
2022-07-25T17:36:36.622Z,4.22
2022-07-25T17:39:03.943Z,3.60
2022-07-25T17:41:31.363Z,4.72
2022-07-25T17:43:58.520Z,2.83
2022-07-25T17:46:25.739Z,4.00
2022-07-25T17:48:53.153Z,4.07
2022-07-25T17:51:20.342Z,5.03
2022-07-25T17:53:47.507Z,3.50
2022-07-25T17:56:14.773Z,3.22
2022-07-25T17:58:41.935Z,3.42
2022-07-25T18:01:10.626Z,4.43
2022-07-25T18:03:38.214Z,3.63
2022-07-25T18:06:05.552Z,3.58
2022-07-25T18:08:35.181Z,3.47
2022-07-25T18:11:03.719Z,4.35
2022-07-25T18:13:31.064Z,3.47
2022-07-25T18:15:58.252Z,3.75
2022-07-25T18:18:26.946Z,4.40
2022-07-25T18:20:54.243Z,3.85
2022-07-25T18:23:21.461Z,3.75
2022-07-25T18:25:48.839Z,5.25
2022-07-25T18:28:16.019Z,5.68
2022-07-25T18:30:43.230Z,4.25
2022-07-25T18:33:11.093Z,5.43
2022-07-25T18:35:38.356Z,3.80
2022-07-25T18:38:06.868Z,4.13
2022-07-25T18:40:34.174Z,4.28
2022-07-25T18:43:03.049Z,5.07
2022-07-25T18:45:36.601Z,4.00
2022-07-25T18:48:05.635Z,4.47
2022-07-25T18:50:32.843Z,4.47
2022-07-25T18:53:00.171Z,4.90
2022-07-25T18:55:27.384Z,5.75
2022-07-25T18:57:54.860Z,4.55
2022-07-25T19:00:22.115Z,5.03
2022-07-25T19:02:49.349Z,4.07
2022-07-25T19:05:16.669Z,4.22
2022-07-25T19:07:44.383Z,4.40
2022-07-25T19:10:11.793Z,4.45
2022-07-25T19:12:39.394Z,4.88
2022-07-25T19:15:07.052Z,4.47
2022-07-25T19:17:35.454Z,4.20
2022-07-25T19:20:02.670Z,5.00
2022-07-25T19:22:29.890Z,4.78
2022-07-25T19:24:57.336Z,6.05
2022-07-25T19:27:25.854Z,5.35
2022-07-25T19:29:54.290Z,5.00
2022-07-25T19:32:22.500Z,4.90
2022-07-25T19:34:49.869Z,5.63
2022-07-25T19:37:17.170Z,3.55
2022-07-25T19:39:47.523Z,3.63
2022-07-25T19:42:14.745Z,3.08
2022-07-25T19:44:41.979Z,3.58
2022-07-25T19:47:11.886Z,3.22
2022-07-25T19:49:40.110Z,4.25
2022-07-25T19:52:08.358Z,3.28
2022-07-25T19:54:35.538Z,3.33
2022-07-25T19:57:02.802Z,3.33
2022-07-25T19:59:30.686Z,4.53
2022-07-25T20:01:57.942Z,4.07
2022-07-25T20:04:25.215Z,5.65
2022-07-25T20:06:52.531Z,4.00
2022-07-25T20:09:20.510Z,5.90
2022-07-25T20:11:48.046Z,3.67
2022-07-25T20:14:15.367Z,4.10
2022-07-25T20:16:42.696Z,4.32
2022-07-25T20:19:11.841Z,3.22
2022-07-25T20:21:40.035Z,3.30
2022-07-25T20:24:07.362Z,3.33
2022-07-25T20:26:34.531Z,3.20
2022-07-25T20:29:01.954Z,4.72
2022-07-25T20:31:29.155Z,2.97
2022-07-25T20:33:56.350Z,6.38
2022-07-25T20:36:23.619Z,3.00
2022-07-25T20:38:50.895Z,2.90
2022-07-25T20:41:18.242Z,3.97
2022-07-25T20:43:45.575Z,3.17
2022-07-25T20:46:12.998Z,3.30
2022-07-25T20:48:40.270Z,4.13
2022-07-25T20:51:07.577Z,5.00
2022-07-25T20:53:34.739Z,3.20
2022-07-25T20:56:02.587Z,3.33
2022-07-25T20:58:29.912Z,3.80
2022-07-25T21:01:00.212Z,4.07
2022-07-25T21:03:27.482Z,4.10
2022-07-25T21:05:54.738Z,3.92
2022-07-25T21:08:21.895Z,4.07
2022-07-25T21:10:49.173Z,5.20
2022-07-25T21:13:16.943Z,3.15
2022-07-25T21:15:45.896Z,5.25
2022-07-25T21:18:13.114Z,3.67
2022-07-25T21:20:40.476Z,3.58
2022-07-25T21:23:07.694Z,4.55
2022-07-25T21:25:34.864Z,5.18
2022-07-25T21:28:02.157Z,5.82
2022-07-25T21:30:29.356Z,4.53
2022-07-25T21:32:56.526Z,6.40
2022-07-25T21:35:23.872Z,6.15
2022-07-25T21:37:51.369Z,4.15
2022-07-25T21:40:18.552Z,3.28
2022-07-25T21:42:45.877Z,3.88
2022-07-25T21:45:13.091Z,4.95
2022-07-25T21:47:40.382Z,3.53
2022-07-25T21:50:26.627Z,3.58
2022-07-25T21:52:54.440Z,4.63
2022-07-25T21:55:21.755Z,4.50
2022-07-25T21:57:49.387Z,4.55
2022-07-25T22:00:16.656Z,3.47
2022-07-25T22:02:44.799Z,3.50
2022-07-25T22:05:13.016Z,5.65
2022-07-25T22:07:40.407Z,4.65
2022-07-25T22:10:08.622Z,3.65
2022-07-25T22:12:36.279Z,3.03
2022-07-25T22:15:03.846Z,4.90
2022-07-25T22:17:48.526Z,4.13
2022-07-25T22:20:16.632Z,5.30
2022-07-25T22:22:43.778Z,5.13
2022-07-25T22:25:10.984Z,5.55
2022-07-25T22:27:38.242Z,3.47
2022-07-25T22:30:06.286Z,5.57
2022-07-25T22:32:33.533Z,3.80
2022-07-25T22:35:00.766Z,3.53
2022-07-25T22:37:27.918Z,6.38
2022-07-25T22:40:01.317Z,4.60
2022-07-25T22:42:28.975Z,5.30
2022-07-25T22:44:56.180Z,6.40
2022-07-25T22:47:23.329Z,3.58
2022-07-25T22:49:50.698Z,6.47
2022-07-25T22:52:17.893Z,3.53
2022-07-25T22:54:45.060Z,5.53
2022-07-25T22:57:12.370Z,6.97
2022-07-25T22:59:39.561Z,4.53
2022-07-25T23:02:06.761Z,3.35
2022-07-25T23:04:34.131Z,4.18
2022-07-25T23:07:01.380Z,7.22
2022-07-25T23:09:34.789Z,5.03
2022-07-25T23:12:04.964Z,3.92
2022-07-25T23:14:32.660Z,5.72
2022-07-25T23:17:18.283Z,4.82
2022-07-25T23:19:45.772Z,4.20
2022-07-25T23:22:12.926Z,5.07
2022-07-25T23:24:40.227Z,4.88
2022-07-25T23:27:07.504Z,4.60
2022-07-25T23:29:34.645Z,4.78
2022-07-25T23:32:01.975Z,4.47
2022-07-25T23:34:29.273Z,6.53
2022-07-25T23:36:56.545Z,6.07
2022-07-25T23:39:23.836Z,6.30
2022-07-25T23:41:51.160Z,3.88
2022-07-25T23:44:18.538Z,5.82
2022-07-25T23:46:46.066Z,5.63
2022-07-25T23:49:14.284Z,5.00
2022-07-25T23:51:41.581Z,4.40
2022-07-25T23:54:08.934Z,3.90
2022-07-25T23:56:36.124Z,4.22
2022-07-25T23:59:03.458Z,5.32
